createdAt,value
2022-10-17T00:00:49.000Z,9627.0
2022-10-17T00:01:50.000Z,9245.0
2022-10-17T00:02:49.000Z,9500.0
2022-10-17T00:03:50.000Z,8736.0
2022-10-17T00:04:50.000Z,8387.0
2022-10-17T00:05:49.000Z,8455.0
2022-10-17T00:06:50.000Z,8243.0
2022-10-17T00:07:49.000Z,7698.0
2022-10-17T00:08:49.000Z,7296.0
2022-10-17T00:09:50.000Z,7226.0
2022-10-17T00:10:49.000Z,6689.0
2022-10-17T00:11:50.000Z,6465.0
2022-10-17T00:12:49.000Z,6763.0
2022-10-17T00:13:49.000Z,7285.0
2022-10-17T00:14:50.000Z,8372.0
2022-10-17T00:15:49.000Z,8579.0
2022-10-17T00:16:50.000Z,9067.0
2022-10-17T00:17:50.000Z,8348.0
2022-10-17T00:18:49.000Z,8216.0
2022-10-17T00:19:50.000Z,8681.0
2022-10-17T00:20:49.000Z,8929.0
2022-10-17T00:21:49.000Z,9076.0
2022-10-17T00:22:50.000Z,9157.0
2022-10-17T00:23:49.000Z,8837.0
2022-10-17T00:24:50.000Z,8815.0
2022-10-17T00:25:49.000Z,9078.0
2022-10-17T00:26:49.000Z,8782.0
2022-10-17T00:27:50.000Z,7901.0
2022-10-17T00:28:49.000Z,7031.0
2022-10-17T00:29:50.000Z,5510.0
2022-10-17T00:30:50.000Z,4531.0
2022-10-17T00:31:49.000Z,3648.0
2022-10-17T00:32:50.000Z,2949.0
2022-10-17T00:33:49.000Z,2619.0
2022-10-17T00:34:49.000Z,2405.0
2022-10-17T00:35:50.000Z,2268.0
2022-10-17T00:36:49.000Z,2183.0
2022-10-17T00:37:50.000Z,2084.0
2022-10-17T00:38:49.000Z,1856.0
2022-10-17T00:39:49.000Z,1953.0
2022-10-17T00:40:50.000Z,1926.0
2022-10-17T00:41:49.000Z,1741.0
2022-10-17T00:42:50.000Z,1535.0
2022-10-17T00:43:50.000Z,708.0
2022-10-17T00:44:49.000Z,421.0
2022-10-17T00:45:50.000Z,282.0
2022-10-17T00:46:49.000Z,185.0
2022-10-17T00:47:49.000Z,140.0
2022-10-17T00:48:50.000Z,104.0
2022-10-17T00:49:49.000Z,203.0
2022-10-17T00:50:49.000Z,241.0
2022-10-17T00:51:50.000Z,201.0
2022-10-17T00:52:49.000Z,154.0
2022-10-17T00:53:50.000Z,181.0
2022-10-17T00:54:50.000Z,302.0
2022-10-17T00:55:49.000Z,356.0
2022-10-17T00:56:50.000Z,345.0
2022-10-17T00:57:49.000Z,363.0
2022-10-17T00:58:49.000Z,290.0
2022-10-17T00:59:50.000Z,226.0
2022-10-17T01:00:49.000Z,263.0
2022-10-17T01:01:50.000Z,513.0
2022-10-17T01:02:49.000Z,665.0
2022-10-17T01:03:49.000Z,651.0
2022-10-17T01:04:50.000Z,378.0
2022-10-17T01:05:49.000Z,213.0
2022-10-17T01:06:50.000Z,128.0
2022-10-17T01:07:50.000Z,151.0
2022-10-17T01:08:49.000Z,225.0
2022-10-17T01:09:50.000Z,384.0
2022-10-17T01:10:49.000Z,486.0
2022-10-17T01:11:49.000Z,529.0
2022-10-17T01:12:50.000Z,545.0
2022-10-17T01:13:49.000Z,396.0
2022-10-17T01:14:50.000Z,397.0
2022-10-17T01:15:50.000Z,597.0
2022-10-17T01:16:49.000Z,782.0
2022-10-17T01:17:50.000Z,928.0
2022-10-17T01:18:49.000Z,956.0
2022-10-17T01:19:49.000Z,1107.0
2022-10-17T01:20:50.000Z,1310.0
2022-10-17T01:21:49.000Z,1465.0
2022-10-17T01:22:50.000Z,1398.0
2022-10-17T01:23:49.000Z,1265.0
2022-10-17T01:24:49.000Z,1275.0
2022-10-17T01:25:50.000Z,1164.0
2022-10-17T01:26:49.000Z,1489.0
2022-10-17T01:27:50.000Z,1370.0
2022-10-17T01:28:49.000Z,1189.0
2022-10-17T01:29:49.000Z,1341.0
2022-10-17T01:30:50.000Z,1724.0
2022-10-17T01:31:49.000Z,2003.0
2022-10-17T01:32:49.000Z,2246.0
2022-10-17T01:33:50.000Z,2310.0
2022-10-17T01:34:49.000Z,2277.0
2022-10-17T01:35:50.000Z,2473.0
2022-10-17T01:36:49.000Z,2711.0
2022-10-17T01:37:49.000Z,2767.0
2022-10-17T01:38:50.000Z,2714.0
2022-10-17T01:39:49.000Z,2849.0
2022-10-17T01:40:50.000Z,2844.0
2022-10-17T01:41:50.000Z,2844.0
2022-10-17T01:42:49.000Z,3013.0
2022-10-17T01:43:50.000Z,3161.0
2022-10-17T01:44:49.000Z,3161.0
2022-10-17T01:45:49.000Z,3182.0
2022-10-17T01:46:50.000Z,3156.0
2022-10-17T01:47:49.000Z,3402.0
2022-10-17T01:48:50.000Z,3224.0
2022-10-17T01:49:50.000Z,3441.0
2022-10-17T01:50:49.000Z,3881.0
2022-10-17T01:51:50.000Z,3639.0
2022-10-17T01:52:49.000Z,3671.0
2022-10-17T01:53:49.000Z,3869.0
2022-10-17T01:54:50.000Z,2794.0
2022-10-17T01:55:49.000Z,3158.0
2022-10-17T01:56:49.000Z,3488.0
2022-10-17T01:57:50.000Z,2796.0
2022-10-17T01:58:49.000Z,2381.0
2022-10-17T01:59:50.000Z,1506.0
2022-10-17T02:00:49.000Z,1535.0
2022-10-17T02:01:49.000Z,800.0
2022-10-17T02:02:50.000Z,594.0
2022-10-17T02:03:49.000Z,1122.0
2022-10-17T02:04:49.000Z,1496.0
2022-10-17T02:05:50.000Z,1975.0
2022-10-17T02:06:49.000Z,1981.0
2022-10-17T02:07:50.000Z,2535.0
2022-10-17T02:08:49.000Z,2276.0
2022-10-17T02:09:49.000Z,2556.0
2022-10-17T02:10:50.000Z,3383.0
2022-10-17T02:11:49.000Z,3174.0
2022-10-17T02:12:50.000Z,2913.0
2022-10-17T02:13:49.000Z,2987.0
2022-10-17T02:14:49.000Z,2979.0
2022-10-17T02:15:50.000Z,2394.0
2022-10-17T02:16:49.000Z,2218.0
2022-10-17T02:17:50.000Z,2453.0
2022-10-17T02:18:50.000Z,2298.0
2022-10-17T02:19:49.000Z,2214.0
2022-10-17T02:20:50.000Z,2508.0
2022-10-17T02:21:49.000Z,2398.0
2022-10-17T02:22:49.000Z,2269.0
2022-10-17T02:23:50.000Z,2255.0
2022-10-17T02:24:49.000Z,2369.0
2022-10-17T02:25:50.000Z,2145.0
2022-10-17T02:26:50.000Z,1935.0
2022-10-17T02:27:49.000Z,2308.0
2022-10-17T02:28:50.000Z,1780.0
2022-10-17T02:29:49.000Z,2355.0
2022-10-17T02:30:49.000Z,2723.0
2022-10-17T02:31:50.000Z,2980.0
2022-10-17T02:32:49.000Z,3364.0
2022-10-17T02:33:50.000Z,3943.0
2022-10-17T02:34:49.000Z,3867.0
2022-10-17T02:35:49.000Z,3255.0
2022-10-17T02:36:50.000Z,3522.0
2022-10-17T02:37:49.000Z,2373.0
2022-10-17T02:38:50.000Z,2122.0
2022-10-17T02:39:49.000Z,2042.0
2022-10-17T02:40:49.000Z,2220.0
2022-10-17T02:41:50.000Z,2647.0
2022-10-17T02:42:49.000Z,3245.0
2022-10-17T02:43:49.000Z,3297.0
2022-10-17T02:44:50.000Z,3162.0
2022-10-17T02:45:49.000Z,2625.0
2022-10-17T02:46:50.000Z,2090.0
2022-10-17T02:47:49.000Z,1719.0
2022-10-17T02:48:49.000Z,1204.0
2022-10-17T02:49:50.000Z,880.0
2022-10-17T02:50:49.000Z,1172.0
2022-10-17T02:51:49.000Z,1375.0
2022-10-17T02:52:50.000Z,1840.0
2022-10-17T02:53:49.000Z,2203.0
2022-10-17T02:54:49.000Z,2207.0
2022-10-17T02:55:50.000Z,2304.0
2022-10-17T02:56:49.000Z,2668.0
2022-10-17T02:57:50.000Z,3099.0
2022-10-17T02:58:49.000Z,3659.0
2022-10-17T02:59:49.000Z,3978.0
2022-10-17T03:00:50.000Z,4770.0
2022-10-17T03:01:49.000Z,5157.0
2022-10-17T03:02:50.000Z,4528.0
2022-10-17T03:03:50.000Z,1966.0
2022-10-17T03:04:49.000Z,437.0
2022-10-17T03:05:50.000Z,651.0
2022-10-17T03:06:49.000Z,882.0
2022-10-17T03:07:49.000Z,1321.0
2022-10-17T03:08:50.000Z,1274.0
2022-10-17T03:09:49.000Z,1257.0
2022-10-17T03:10:50.000Z,1975.0
2022-10-17T03:11:49.000Z,2456.0
2022-10-17T03:12:49.000Z,2854.0
2022-10-17T03:13:50.000Z,3345.0
2022-10-17T03:14:49.000Z,3802.0
2022-10-17T03:15:50.000Z,4709.0
2022-10-17T03:16:49.000Z,5554.0
2022-10-17T03:17:49.000Z,6062.0
2022-10-17T03:18:50.000Z,6886.0
2022-10-17T03:19:49.000Z,7818.0
2022-10-17T03:20:49.000Z,8381.0
2022-10-17T03:21:50.000Z,7707.0
2022-10-17T03:22:49.000Z,7248.0
2022-10-17T03:23:50.000Z,5753.0
2022-10-17T03:24:49.000Z,5213.0
2022-10-17T03:25:49.000Z,5071.0
2022-10-17T03:26:50.000Z,4789.0
2022-10-17T03:27:49.000Z,4262.0
2022-10-17T03:28:50.000Z,3811.0
2022-10-17T03:29:50.000Z,2022.0
2022-10-17T03:30:49.000Z,1560.0
2022-10-17T03:31:50.000Z,2212.0
2022-10-17T03:32:49.000Z,2665.0
2022-10-17T03:33:49.000Z,3143.0
2022-10-17T03:34:50.000Z,3659.0
2022-10-17T03:35:49.000Z,4244.0
2022-10-17T03:36:50.000Z,4522.0
2022-10-17T03:37:49.000Z,4573.0
2022-10-17T03:38:49.000Z,4749.0
2022-10-17T03:39:50.000Z,2820.0
2022-10-17T03:40:49.000Z,1655.0
2022-10-17T03:41:50.000Z,2201.0
2022-10-17T03:42:50.000Z,2740.0
2022-10-17T03:43:49.000Z,2678.0
2022-10-17T03:44:50.000Z,2599.0
2022-10-17T03:45:49.000Z,2607.0
2022-10-17T03:46:49.000Z,2696.0
2022-10-17T03:47:50.000Z,1296.0
2022-10-17T03:48:49.000Z,1086.0
2022-10-17T03:49:49.000Z,572.0
2022-10-17T03:50:50.000Z,619.0
2022-10-17T03:51:49.000Z,1092.0
2022-10-17T03:52:50.000Z,1734.0
2022-10-17T03:53:50.000Z,1386.0
2022-10-17T03:54:49.000Z,1735.0
2022-10-17T03:55:50.000Z,2313.0
2022-10-17T03:56:49.000Z,2911.0
2022-10-17T03:57:49.000Z,3168.0
2022-10-17T03:58:50.000Z,3450.0
2022-10-17T03:59:49.000Z,1369.0
2022-10-17T04:00:50.000Z,868.0
2022-10-17T04:01:49.000Z,528.0
2022-10-17T04:02:49.000Z,570.0
2022-10-17T04:03:50.000Z,812.0
2022-10-17T04:04:49.000Z,821.0
2022-10-17T04:05:50.000Z,871.0
2022-10-17T04:06:50.000Z,643.0
2022-10-17T04:07:49.000Z,685.0
2022-10-17T04:08:50.000Z,808.0
2022-10-17T04:09:49.000Z,739.0
2022-10-17T04:10:49.000Z,983.0
2022-10-17T04:11:50.000Z,1526.0
2022-10-17T04:12:49.000Z,2031.0
2022-10-17T04:13:50.000Z,2389.0
2022-10-17T04:14:49.000Z,2687.0
2022-10-17T04:15:49.000Z,2914.0
2022-10-17T04:16:50.000Z,3186.0
2022-10-17T04:17:49.000Z,3165.0
2022-10-17T04:18:50.000Z,3487.0
2022-10-17T04:19:50.000Z,3696.0
2022-10-17T04:20:49.000Z,3807.0
2022-10-17T04:21:50.000Z,3955.0
2022-10-17T04:22:49.000Z,4007.0
2022-10-17T04:23:49.000Z,4209.0
2022-10-17T04:24:50.000Z,4099.0
2022-10-17T04:25:49.000Z,4142.0
2022-10-17T04:26:50.000Z,4279.0
2022-10-17T04:27:49.000Z,4200.0
2022-10-17T04:28:49.000Z,4438.0
2022-10-17T04:29:50.000Z,4598.0
2022-10-17T04:30:49.000Z,4523.0
2022-10-17T04:31:49.000Z,4112.0
2022-10-17T04:32:50.000Z,3787.0
2022-10-17T04:33:49.000Z,3276.0
2022-10-17T04:34:50.000Z,2856.0
2022-10-17T04:35:49.000Z,3170.0
2022-10-17T04:36:49.000Z,3012.0
2022-10-17T04:37:50.000Z,3288.0
2022-10-17T04:38:49.000Z,2443.0
2022-10-17T04:39:50.000Z,1267.0
2022-10-17T04:40:49.000Z,383.0
2022-10-17T04:41:49.000Z,227.0
2022-10-17T04:42:50.000Z,197.0
2022-10-17T04:43:49.000Z,215.0
2022-10-17T04:44:50.000Z,231.0
2022-10-17T04:45:50.000Z,193.0
2022-10-17T04:46:49.000Z,221.0
2022-10-17T04:47:50.000Z,203.0
2022-10-17T04:48:49.000Z,227.0
2022-10-17T04:49:49.000Z,196.0
2022-10-17T04:50:50.000Z,220.0
2022-10-17T04:51:49.000Z,301.0
2022-10-17T04:52:49.000Z,415.0
2022-10-17T04:53:50.000Z,683.0
2022-10-17T04:54:49.000Z,383.0
2022-10-17T04:55:50.000Z,227.0
2022-10-17T04:56:50.000Z,238.0
2022-10-17T04:57:49.000Z,277.0
2022-10-17T04:58:50.000Z,209.0
2022-10-17T04:59:49.000Z,179.0
2022-10-17T05:00:49.000Z,247.0
2022-10-17T05:01:50.000Z,197.0
2022-10-17T05:02:49.000Z,182.0
2022-10-17T05:03:50.000Z,187.0
2022-10-17T05:04:49.000Z,175.0
2022-10-17T05:05:49.000Z,190.0
2022-10-17T05:06:50.000Z,196.0
2022-10-17T05:07:49.000Z,220.0
2022-10-17T05:08:49.000Z,247.0
2022-10-17T05:09:50.000Z,265.0
2022-10-17T05:11:50.000Z,346.0
2022-10-17T05:12:49.000Z,292.0
2022-10-17T05:13:49.000Z,474.0
2022-10-17T05:14:50.000Z,445.0
2022-10-17T05:15:49.000Z,729.0
2022-10-17T05:16:50.000Z,490.0
2022-10-17T05:17:49.000Z,525.0
2022-10-17T05:18:49.000Z,891.0
2022-10-17T05:19:50.000Z,540.0
2022-10-17T05:20:49.000Z,437.0
2022-10-17T05:21:49.000Z,677.0
2022-10-17T05:22:50.000Z,883.0
2022-10-17T05:23:49.000Z,764.0
2022-10-17T05:24:50.000Z,1234.0
2022-10-17T05:25:49.000Z,1775.0
2022-10-17T05:26:49.000Z,1743.0
2022-10-17T05:27:50.000Z,1598.0
2022-10-17T05:28:49.000Z,1852.0
2022-10-17T05:29:50.000Z,2130.0
2022-10-17T05:30:49.000Z,2390.0
2022-10-17T05:31:49.000Z,2589.0
2022-10-17T05:32:50.000Z,2849.0
2022-10-17T05:33:49.000Z,3079.0
2022-10-17T05:34:49.000Z,3308.0
2022-10-17T05:35:50.000Z,3032.0
2022-10-17T05:36:49.000Z,2404.0
2022-10-17T05:37:50.000Z,2442.0
2022-10-17T05:38:49.000Z,2753.0
2022-10-17T05:39:49.000Z,2561.0
2022-10-17T05:40:50.000Z,2766.0
2022-10-17T05:41:49.000Z,3002.0
2022-10-17T05:42:50.000Z,3381.0
2022-10-17T05:43:49.000Z,3479.0
2022-10-17T05:44:49.000Z,3856.0
2022-10-17T05:45:50.000Z,4567.0
2022-10-17T05:46:49.000Z,5183.0
2022-10-17T05:47:49.000Z,5714.0
2022-10-17T05:48:50.000Z,6333.0
2022-10-17T05:49:49.000Z,6896.0
2022-10-17T05:50:50.000Z,7540.0
2022-10-17T05:51:49.000Z,9537.0
2022-10-17T05:52:49.000Z,12776.0
2022-10-17T05:53:50.000Z,12522.0
2022-10-17T05:54:49.000Z,14014.0
2022-10-17T05:55:49.000Z,16000.0
2022-10-17T05:56:50.000Z,16000.0
2022-10-17T05:57:49.000Z,16000.0
2022-10-17T05:58:50.000Z,16000.0
2022-10-17T05:59:49.000Z,16000.0
2022-10-17T06:00:49.000Z,16000.0
2022-10-17T06:01:50.000Z,16000.0
2022-10-17T06:02:49.000Z,16000.0
2022-10-17T06:03:50.000Z,16000.0
2022-10-17T06:04:49.000Z,16000.0
2022-10-17T06:05:49.000Z,16000.0
2022-10-17T06:06:50.000Z,16000.0
2022-10-17T06:07:49.000Z,16000.0
2022-10-17T06:08:49.000Z,16000.0
2022-10-17T06:09:50.000Z,16000.0
2022-10-17T06:10:49.000Z,16000.0
2022-10-17T06:11:50.000Z,16000.0
2022-10-17T06:12:49.000Z,16000.0
2022-10-17T06:13:49.000Z,16000.0
2022-10-17T06:14:50.000Z,16000.0
2022-10-17T06:15:49.000Z,16000.0
2022-10-17T06:16:50.000Z,16000.0
2022-10-17T06:17:49.000Z,16000.0
2022-10-17T06:18:49.000Z,16000.0
2022-10-17T06:19:50.000Z,16000.0
2022-10-17T06:20:49.000Z,16000.0
2022-10-17T06:21:49.000Z,16000.0
2022-10-17T06:22:50.000Z,16000.0
2022-10-17T06:23:49.000Z,16000.0
2022-10-17T06:24:50.000Z,16000.0
2022-10-17T06:25:49.000Z,16000.0
2022-10-17T06:26:49.000Z,16000.0
2022-10-17T06:27:50.000Z,16000.0
2022-10-17T06:28:49.000Z,16000.0
2022-10-17T06:29:50.000Z,16000.0
2022-10-17T06:30:49.000Z,16000.0
2022-10-17T06:31:49.000Z,16000.0
2022-10-17T06:32:50.000Z,16000.0
2022-10-17T06:33:49.000Z,16000.0
2022-10-17T06:34:49.000Z,16000.0
2022-10-17T06:35:50.000Z,16000.0
2022-10-17T06:36:49.000Z,16000.0
2022-10-17T06:37:50.000Z,16000.0
2022-10-17T06:38:49.000Z,16000.0
2022-10-17T06:39:49.000Z,16000.0
2022-10-17T06:40:50.000Z,16000.0
2022-10-17T06:41:49.000Z,16000.0
2022-10-17T06:42:50.000Z,16000.0
2022-10-17T06:43:49.000Z,16000.0
2022-10-17T06:44:49.000Z,16000.0
2022-10-17T06:45:50.000Z,16000.0
2022-10-17T06:46:49.000Z,16000.0
2022-10-17T06:47:49.000Z,16000.0
2022-10-17T06:48:50.000Z,16000.0
2022-10-17T06:49:49.000Z,16000.0
2022-10-17T06:50:49.000Z,16000.0
2022-10-17T06:51:50.000Z,16000.0
2022-10-17T06:52:49.000Z,16000.0
2022-10-17T06:53:50.000Z,16000.0
2022-10-17T06:54:49.000Z,16000.0
2022-10-17T06:55:49.000Z,16000.0
2022-10-17T06:56:50.000Z,16000.0
2022-10-17T06:57:49.000Z,16000.0
2022-10-17T06:58:49.000Z,16000.0
2022-10-17T06:59:50.000Z,16000.0
2022-10-17T07:00:49.000Z,16000.0
2022-10-17T07:01:50.000Z,16000.0
2022-10-17T07:02:49.000Z,16000.0
2022-10-17T07:03:49.000Z,16000.0
2022-10-17T07:04:50.000Z,16000.0
2022-10-17T07:05:49.000Z,16000.0
2022-10-17T07:06:49.000Z,16000.0
2022-10-17T07:07:50.000Z,16000.0
2022-10-17T07:08:49.000Z,16000.0
2022-10-17T07:09:50.000Z,16000.0
2022-10-17T07:10:49.000Z,16000.0
2022-10-17T07:11:49.000Z,16000.0
2022-10-17T07:12:50.000Z,16000.0
2022-10-17T07:13:49.000Z,16000.0
2022-10-17T07:14:50.000Z,16000.0
2022-10-17T07:15:49.000Z,16000.0
2022-10-17T07:16:49.000Z,16000.0
2022-10-17T07:17:50.000Z,16000.0
2022-10-17T07:18:49.000Z,16000.0
2022-10-17T07:19:49.000Z,16000.0
2022-10-17T07:20:50.000Z,16000.0
2022-10-17T07:21:49.000Z,16000.0
2022-10-17T07:22:50.000Z,16000.0
2022-10-17T07:23:49.000Z,16000.0
2022-10-17T07:24:49.000Z,16000.0
2022-10-17T07:25:50.000Z,16000.0
2022-10-17T07:26:49.000Z,16000.0
2022-10-17T07:27:50.000Z,16000.0
2022-10-17T07:28:49.000Z,16000.0
2022-10-17T07:29:49.000Z,16000.0
2022-10-17T07:30:50.000Z,16000.0
2022-10-17T07:31:49.000Z,16000.0
2022-10-17T07:32:49.000Z,16000.0
2022-10-17T07:33:50.000Z,16000.0
2022-10-17T07:34:49.000Z,16000.0
2022-10-17T07:35:50.000Z,16000.0
2022-10-17T07:36:49.000Z,16000.0
2022-10-17T07:37:49.000Z,16000.0
2022-10-17T07:38:50.000Z,16000.0
2022-10-17T07:39:49.000Z,16000.0
2022-10-17T07:40:50.000Z,16000.0
2022-10-17T07:41:49.000Z,16000.0
2022-10-17T07:42:49.000Z,16000.0
2022-10-17T07:43:50.000Z,16000.0
2022-10-17T07:44:49.000Z,16000.0
2022-10-17T07:45:49.000Z,16000.0
2022-10-17T07:46:50.000Z,16000.0
2022-10-17T07:47:49.000Z,16000.0
2022-10-17T07:48:50.000Z,16000.0
2022-10-17T07:49:50.000Z,16000.0
2022-10-17T07:50:49.000Z,16000.0
2022-10-17T07:51:50.000Z,16000.0
2022-10-17T07:52:49.000Z,16000.0
2022-10-17T07:53:49.000Z,16000.0
2022-10-17T07:54:50.000Z,16000.0
2022-10-17T07:55:49.000Z,16000.0
2022-10-17T07:56:49.000Z,16000.0
2022-10-17T07:57:50.000Z,16000.0
2022-10-17T07:58:49.000Z,16000.0
2022-10-17T07:59:50.000Z,16000.0
2022-10-17T08:00:49.000Z,16000.0
2022-10-17T08:01:49.000Z,16000.0
2022-10-17T08:02:50.000Z,16000.0
2022-10-17T08:03:49.000Z,16000.0
2022-10-17T08:04:50.000Z,16000.0
2022-10-17T08:05:49.000Z,16000.0
2022-10-17T08:06:49.000Z,16000.0
2022-10-17T08:07:50.000Z,16000.0
2022-10-17T08:08:49.000Z,16000.0
2022-10-17T08:09:49.000Z,16000.0
2022-10-17T08:10:50.000Z,16000.0
2022-10-17T08:11:49.000Z,16000.0
2022-10-17T08:12:50.000Z,16000.0
2022-10-17T08:13:49.000Z,16000.0
2022-10-17T08:14:49.000Z,16000.0
2022-10-17T08:15:50.000Z,16000.0
2022-10-17T08:16:49.000Z,16000.0
2022-10-17T08:17:50.000Z,16000.0
2022-10-17T08:18:49.000Z,16000.0
2022-10-17T08:19:49.000Z,16000.0
2022-10-17T08:20:50.000Z,16000.0
2022-10-17T08:21:49.000Z,16000.0
2022-10-17T08:22:49.000Z,16000.0
2022-10-17T08:23:50.000Z,16000.0
2022-10-17T08:24:49.000Z,16000.0
2022-10-17T08:25:50.000Z,16000.0
2022-10-17T08:26:49.000Z,16000.0
2022-10-17T08:27:49.000Z,16000.0
2022-10-17T08:28:50.000Z,16000.0
2022-10-17T08:29:49.000Z,16000.0
2022-10-17T08:30:49.000Z,16000.0
2022-10-17T08:31:49.000Z,16000.0
2022-10-17T08:32:49.000Z,16000.0
2022-10-17T08:33:50.000Z,16000.0
2022-10-17T08:34:49.000Z,16000.0
2022-10-17T08:35:49.000Z,16000.0
2022-10-17T08:36:50.000Z,16000.0
2022-10-17T08:37:49.000Z,16000.0
2022-10-17T08:38:50.000Z,16000.0
2022-10-17T08:39:49.000Z,16000.0
2022-10-17T08:40:49.000Z,16000.0
2022-10-17T08:41:50.000Z,16000.0
2022-10-17T08:42:49.000Z,16000.0
2022-10-17T08:43:50.000Z,16000.0
2022-10-17T08:44:49.000Z,16000.0
2022-10-17T08:45:49.000Z,16000.0
2022-10-17T08:46:50.000Z,16000.0
2022-10-17T08:47:49.000Z,16000.0
2022-10-17T08:48:49.000Z,16000.0
2022-10-17T08:49:50.000Z,16000.0
2022-10-17T08:50:49.000Z,16000.0
2022-10-17T08:51:49.000Z,16000.0
2022-10-17T08:52:50.000Z,16000.0
2022-10-17T08:53:49.000Z,16000.0
2022-10-17T08:54:50.000Z,16000.0
2022-10-17T08:55:49.000Z,16000.0
2022-10-17T08:56:49.000Z,16000.0
2022-10-17T08:57:50.000Z,16000.0
2022-10-17T08:58:49.000Z,16000.0
2022-10-17T08:59:49.000Z,16000.0
2022-10-17T09:00:50.000Z,16000.0
2022-10-17T09:01:49.000Z,16000.0
2022-10-17T09:02:50.000Z,16000.0
2022-10-17T09:03:49.000Z,16000.0
2022-10-17T09:04:49.000Z,16000.0
2022-10-17T09:05:50.000Z,16000.0
2022-10-17T09:06:49.000Z,16000.0
2022-10-17T09:07:49.000Z,16000.0
2022-10-17T09:08:49.000Z,16000.0
2022-10-17T09:09:49.000Z,16000.0
2022-10-17T09:10:50.000Z,16000.0
2022-10-17T09:11:49.000Z,16000.0
2022-10-17T09:12:49.000Z,16000.0
2022-10-17T09:13:50.000Z,16000.0
2022-10-17T09:14:49.000Z,16000.0
2022-10-17T09:15:50.000Z,16000.0
2022-10-17T09:16:49.000Z,16000.0
2022-10-17T09:17:49.000Z,16000.0
2022-10-17T09:18:50.000Z,16000.0
2022-10-17T09:19:49.000Z,16000.0
2022-10-17T09:20:50.000Z,16000.0
2022-10-17T09:21:49.000Z,16000.0
2022-10-17T09:22:49.000Z,16000.0
2022-10-17T09:23:50.000Z,16000.0
2022-10-17T09:24:49.000Z,16000.0
2022-10-17T09:25:49.000Z,16000.0
2022-10-17T09:26:50.000Z,16000.0
2022-10-17T09:27:49.000Z,16000.0
2022-10-17T09:28:50.000Z,16000.0
2022-10-17T09:29:49.000Z,16000.0
2022-10-17T09:30:49.000Z,16000.0
2022-10-17T09:31:50.000Z,16000.0
2022-10-17T09:32:49.000Z,16000.0
2022-10-17T09:33:49.000Z,16000.0
2022-10-17T09:34:49.000Z,16000.0
2022-10-17T09:35:49.000Z,16000.0
2022-10-17T09:36:50.000Z,16000.0
2022-10-17T09:37:49.000Z,16000.0
2022-10-17T09:38:49.000Z,16000.0
2022-10-17T09:39:50.000Z,16000.0
2022-10-17T09:40:49.000Z,16000.0
2022-10-17T09:41:50.000Z,16000.0
2022-10-17T09:42:49.000Z,16000.0
2022-10-17T09:43:49.000Z,16000.0
2022-10-17T09:44:50.000Z,16000.0
2022-10-17T09:45:49.000Z,16000.0
2022-10-17T09:46:49.000Z,16000.0
2022-10-17T09:47:49.000Z,16000.0
2022-10-17T09:48:49.000Z,16000.0
2022-10-17T09:49:50.000Z,16000.0
2022-10-17T09:50:49.000Z,16000.0
2022-10-17T09:51:49.000Z,16000.0
2022-10-17T09:52:50.000Z,16000.0
2022-10-17T09:53:49.000Z,16000.0
2022-10-17T09:54:49.000Z,16000.0
2022-10-17T09:55:50.000Z,16000.0
2022-10-17T09:56:49.000Z,16000.0
2022-10-17T09:57:49.000Z,16000.0
2022-10-17T09:58:49.000Z,16000.0
2022-10-17T09:59:49.000Z,16000.0
2022-10-17T10:00:50.000Z,16000.0
2022-10-17T10:01:49.000Z,16000.0
2022-10-17T10:02:49.000Z,16000.0
2022-10-17T10:03:50.000Z,16000.0
2022-10-17T10:04:49.000Z,16000.0
2022-10-17T10:05:50.000Z,16000.0
2022-10-17T10:06:49.000Z,16000.0
2022-10-17T10:07:49.000Z,16000.0
2022-10-17T10:08:50.000Z,16000.0
2022-10-17T10:09:49.000Z,16000.0
2022-10-17T10:10:49.000Z,16000.0
2022-10-17T10:11:49.000Z,16000.0
2022-10-17T10:12:49.000Z,16000.0
2022-10-17T10:13:50.000Z,16000.0
2022-10-17T10:14:49.000Z,16000.0
2022-10-17T10:15:49.000Z,16000.0
2022-10-17T10:16:50.000Z,16000.0
2022-10-17T10:17:49.000Z,16000.0
2022-10-17T10:18:50.000Z,16000.0
2022-10-17T10:19:49.000Z,16000.0
2022-10-17T10:20:49.000Z,16000.0
2022-10-17T10:21:50.000Z,16000.0
2022-10-17T10:22:49.000Z,16000.0
2022-10-17T10:23:49.000Z,16000.0
2022-10-17T10:24:49.000Z,16000.0
2022-10-17T10:25:49.000Z,16000.0
2022-10-17T10:26:50.000Z,16000.0
2022-10-17T10:27:49.000Z,16000.0
2022-10-17T10:28:49.000Z,16000.0
2022-10-17T10:29:50.000Z,16000.0
2022-10-17T10:30:49.000Z,16000.0
2022-10-17T10:31:50.000Z,16000.0
2022-10-17T10:32:49.000Z,16000.0
2022-10-17T10:33:49.000Z,16000.0
2022-10-17T10:34:50.000Z,16000.0
2022-10-17T10:35:49.000Z,16000.0
2022-10-17T10:36:49.000Z,16000.0
2022-10-17T10:37:49.000Z,16000.0
2022-10-17T10:38:49.000Z,16000.0
2022-10-17T10:39:50.000Z,16000.0
2022-10-17T10:40:49.000Z,16000.0
2022-10-17T10:41:49.000Z,16000.0
2022-10-17T10:42:50.000Z,16000.0
2022-10-17T10:43:49.000Z,16000.0
2022-10-17T10:44:50.000Z,16000.0
2022-10-17T10:45:49.000Z,16000.0
2022-10-17T10:46:49.000Z,16000.0
2022-10-17T10:47:50.000Z,16000.0
2022-10-17T10:48:49.000Z,16000.0
2022-10-17T10:49:49.000Z,16000.0
2022-10-17T10:50:50.000Z,16000.0
2022-10-17T10:51:49.000Z,16000.0
2022-10-17T10:52:49.000Z,16000.0
2022-10-17T10:53:50.000Z,16000.0
2022-10-17T10:54:49.000Z,16000.0
2022-10-17T10:55:50.000Z,16000.0
2022-10-17T10:56:49.000Z,16000.0
2022-10-17T10:57:49.000Z,16000.0
2022-10-17T10:58:50.000Z,16000.0
2022-10-17T10:59:49.000Z,16000.0
2022-10-17T11:00:49.000Z,16000.0
2022-10-17T11:01:50.000Z,16000.0
2022-10-17T11:02:49.000Z,16000.0
2022-10-17T11:03:50.000Z,16000.0
2022-10-17T11:04:49.000Z,16000.0
2022-10-17T11:05:49.000Z,16000.0
2022-10-17T11:06:50.000Z,16000.0
2022-10-17T11:07:49.000Z,16000.0
2022-10-17T11:08:50.000Z,16000.0
2022-10-17T11:09:49.000Z,16000.0
2022-10-17T11:10:49.000Z,16000.0
2022-10-17T11:11:50.000Z,16000.0
2022-10-17T11:12:49.000Z,16000.0
2022-10-17T11:13:49.000Z,16000.0
2022-10-17T11:14:50.000Z,16000.0
2022-10-17T11:15:49.000Z,16000.0
2022-10-17T11:16:50.000Z,16000.0
2022-10-17T11:17:49.000Z,16000.0
2022-10-17T11:18:49.000Z,16000.0
2022-10-17T11:19:50.000Z,16000.0
2022-10-17T11:20:49.000Z,16000.0
2022-10-17T11:21:49.000Z,16000.0
2022-10-17T11:22:49.000Z,16000.0
2022-10-17T11:23:49.000Z,16000.0
2022-10-17T11:24:50.000Z,16000.0
2022-10-17T11:25:49.000Z,16000.0
2022-10-17T11:26:49.000Z,16000.0
2022-10-17T11:27:50.000Z,16000.0
2022-10-17T11:28:49.000Z,16000.0
2022-10-17T11:29:50.000Z,16000.0
2022-10-17T11:30:49.000Z,16000.0
2022-10-17T11:31:49.000Z,16000.0
2022-10-17T11:32:50.000Z,16000.0
2022-10-17T11:33:49.000Z,16000.0
2022-10-17T11:34:49.000Z,16000.0
2022-10-17T11:35:49.000Z,16000.0
2022-10-17T11:36:49.000Z,16000.0
2022-10-17T11:37:50.000Z,16000.0
2022-10-17T11:38:49.000Z,16000.0
2022-10-17T11:39:49.000Z,16000.0
2022-10-17T11:40:50.000Z,16000.0
2022-10-17T11:41:49.000Z,16000.0
2022-10-17T11:42:50.000Z,16000.0
2022-10-17T11:43:49.000Z,16000.0
2022-10-17T11:44:49.000Z,16000.0
2022-10-17T11:45:50.000Z,16000.0
2022-10-17T11:46:49.000Z,16000.0
2022-10-17T11:47:49.000Z,16000.0
2022-10-17T11:48:49.000Z,16000.0
2022-10-17T11:51:49.000Z,16000.0
2022-10-17T11:52:49.000Z,16000.0
2022-10-17T11:53:50.000Z,16000.0
2022-10-17T11:54:49.000Z,16000.0
2022-10-17T11:55:49.000Z,16000.0
2022-10-17T11:56:50.000Z,16000.0
2022-10-17T11:57:49.000Z,16000.0
2022-10-17T11:58:49.000Z,16000.0
2022-10-17T11:59:49.000Z,16000.0
2022-10-17T12:00:49.000Z,16000.0
2022-10-17T12:01:50.000Z,16000.0
2022-10-17T12:02:49.000Z,16000.0
2022-10-17T12:03:49.000Z,16000.0
2022-10-17T12:04:50.000Z,16000.0
2022-10-17T12:05:49.000Z,16000.0
2022-10-17T12:06:49.000Z,16000.0
2022-10-17T12:07:49.000Z,16000.0
2022-10-17T12:08:49.000Z,16000.0
2022-10-17T12:09:50.000Z,16000.0
2022-10-17T12:10:49.000Z,16000.0
2022-10-17T12:11:49.000Z,16000.0
2022-10-17T12:12:50.000Z,16000.0
2022-10-17T12:13:49.000Z,16000.0
2022-10-17T12:14:50.000Z,16000.0
2022-10-17T12:15:49.000Z,16000.0
2022-10-17T12:16:49.000Z,16000.0
2022-10-17T12:17:50.000Z,16000.0
2022-10-17T12:18:49.000Z,16000.0
2022-10-17T12:19:50.000Z,16000.0
2022-10-17T12:20:49.000Z,16000.0
2022-10-17T12:21:49.000Z,16000.0
2022-10-17T12:22:50.000Z,16000.0